Springfield, IL (62756)

3:08 PM CDT on August 24, 2016 (GMT -0500)
Springfield West Side | | Change Station

Elev 604 ft 39.79 °N, 89.69 °W | Updated 36 seconds ago

Partly Cloudy
Partly Cloudy
90.0 °F
Feels Like 100 °F
N
2.0
Wind Variable Wind from SW
Gusts 2.7 mph

Today
High -- | Low -- °F
--% Chance of Precip.
Yesterday
High -- | Low -- °F
Precip. -- in
Pressure 29.97 in
Visibility 10.0 miles
Clouds Few 3300 ft
Heat Index 100 °F
Dew Point 75 °F
Humidity 61%
Rainfall 0.04 in
Snow Depth Not available.
6:19 AM 7:41 PM
Waning Gibbous, 54% visible
METAR KSPI 241952Z 25008G16KT 210V280 10SM FEW033 32/24 A2999 RMK AO2 SLP149 T03170239
Pressure 29.97 in
Visibility 10.0 miles
Clouds Few 3300 ft
Heat Index 100 °F
Dew Point 75 °F
Humidity 61%
Rainfall 0.04 in
Snow Depth Not available.
6:19 AM 7:41 PM
Waning Gibbous, 54% visible
METAR KSPI 241952Z 25008G16KT 210V280 10SM FEW033 32/24 A2999 RMK AO2 SLP149 T03170239

10-Day Weather Forecast

Almanac

Astronomy

Aug. 24, 2016 Rise Set
Actual Time
Civil Twilight
Nautical Twilight
Astronomical Twilight
Moon
Length of Visible Light
Length of Day
Tomorrow will be .
, % of the Moon is Illuminated

Today's Extremes

State Highs State Lows

Community

WunderPhotos

Upload Photos

1,934,696 photos uploaded!

WunderBlog® & News

Nearby

Air Quality

  Air Quality AQ Index Pollutant
Not available.

Snow Depth

Station Depth Elevation

Earthquake Activity

City Distance Mag. Time & Date
Minimum magnitude displayed is 2.5.

Coastal Water Temperatures

Place Temperature

Stations

Nearby Weather Stations

Station Location Temp. Windchill Dew Point Humidity Wind Precip. Elev Updated Type
                   

Watches & Warnings

There are currently no watches in effect.